createdAt,value
2019-03-05T00:00:36.941Z,0.70
2019-03-05T00:03:40.436Z,0.80
2019-03-05T00:06:43.943Z,0.98
2019-03-05T00:09:47.428Z,0.75
2019-03-05T00:12:51.974Z,1.00
2019-03-05T00:15:56.037Z,1.00
2019-03-05T00:19:00.596Z,1.10
2019-03-05T00:22:04.182Z,0.80
2019-03-05T00:25:10.137Z,1.00
2019-03-05T00:28:18.436Z,0.78
2019-03-05T00:31:34.675Z,0.80
2019-03-05T00:35:24.023Z,0.70
2019-03-05T00:38:57.702Z,0.70
2019-03-05T00:42:39.547Z,0.90
2019-03-05T00:46:12.340Z,0.97
2019-03-05T00:49:53.120Z,0.95
2019-03-05T00:53:38.632Z,0.70
2019-03-05T00:57:09.964Z,0.90
2019-03-05T01:00:56.026Z,0.90
2019-03-05T01:04:35.699Z,0.73
2019-03-05T01:07:39.210Z,1.00
2019-03-05T01:10:43.579Z,0.80
2019-03-05T01:13:47.013Z,0.90
2019-03-05T01:16:50.614Z,0.90
2019-03-05T01:19:54.228Z,0.70
2019-03-05T01:22:58.759Z,0.97
2019-03-05T01:26:02.268Z,0.70
2019-03-05T01:29:06.809Z,0.80
2019-03-05T01:32:23.499Z,0.80
2019-03-05T01:35:37.434Z,0.75
2019-03-05T01:38:48.590Z,0.80
2019-03-05T01:41:52.111Z,0.57
2019-03-05T01:44:55.629Z,0.80
2019-03-05T01:48:00.140Z,0.60
2019-03-05T01:51:03.647Z,0.80
2019-03-05T01:54:11.057Z,0.88
2019-03-05T01:57:14.528Z,0.80
2019-03-05T02:00:18.063Z,0.68
2019-03-05T02:03:21.543Z,0.80
2019-03-05T02:06:25.013Z,0.70
2019-03-05T02:09:28.572Z,0.80
2019-03-05T02:12:32.051Z,0.62
2019-03-05T02:15:35.540Z,0.70
2019-03-05T02:18:39.040Z,0.60
2019-03-05T02:21:42.545Z,0.80
2019-03-05T02:25:32.966Z,0.83
2019-03-05T02:28:58.526Z,0.70
2019-03-05T02:32:37.069Z,0.70
2019-03-05T02:35:55.429Z,0.70
2019-03-05T02:39:45.535Z,0.82
2019-03-05T02:43:27.865Z,0.70
2019-03-05T02:47:09.127Z,0.60
2019-03-05T02:50:56.446Z,0.67
2019-03-05T02:54:44.653Z,0.80
2019-03-05T02:57:46.974Z,0.70
2019-03-05T03:01:01.580Z,0.62
2019-03-05T03:04:09.195Z,0.60
2019-03-05T03:07:12.740Z,0.70
2019-03-05T03:10:19.277Z,0.70
2019-03-05T03:13:22.899Z,0.47
2019-03-05T03:16:26.514Z,0.80
2019-03-05T03:19:30.026Z,0.60
2019-03-05T03:22:33.535Z,0.77
2019-03-05T03:25:37.011Z,0.65
2019-03-05T03:28:41.539Z,0.70
2019-03-05T03:31:45.038Z,0.70
2019-03-05T03:34:48.547Z,0.65
2019-03-05T03:37:52.055Z,0.80
2019-03-05T03:40:55.532Z,0.80
2019-03-05T03:43:59.034Z,0.80
2019-03-05T03:47:02.608Z,0.70
2019-03-05T03:50:06.157Z,0.75
2019-03-05T03:53:09.773Z,0.60
2019-03-05T03:56:13.276Z,0.80
2019-03-05T03:59:16.738Z,0.70
2019-03-05T04:02:20.260Z,0.80
2019-03-05T04:05:25.065Z,0.78
2019-03-05T04:08:29.539Z,0.70
2019-03-05T04:11:34.037Z,0.78
2019-03-05T04:14:37.533Z,0.60
2019-03-05T04:17:41.180Z,0.70
2019-03-05T04:20:48.621Z,0.90
2019-03-05T04:23:52.129Z,0.68
2019-03-05T04:26:55.590Z,0.67
2019-03-05T04:29:59.130Z,0.62
2019-03-05T04:33:02.679Z,0.70
2019-03-05T04:36:06.127Z,0.85
2019-03-05T04:39:11.385Z,0.60
2019-03-05T04:42:15.007Z,0.70
2019-03-05T04:45:34.500Z,0.70
2019-03-05T04:48:43.720Z,0.60
2019-03-05T04:51:51.898Z,0.72
2019-03-05T04:54:55.410Z,0.60
2019-03-05T04:58:00.115Z,0.47
2019-03-05T05:01:05.680Z,0.80
2019-03-05T05:04:17.158Z,0.50
2019-03-05T05:07:20.657Z,0.70
2019-03-05T05:10:24.201Z,0.70
2019-03-05T05:13:28.713Z,0.70
2019-03-05T05:16:32.180Z,0.60
2019-03-05T05:19:35.713Z,0.60
2019-03-05T05:22:39.192Z,0.60
2019-03-05T05:25:42.688Z,0.70
2019-03-05T05:28:46.212Z,0.70
2019-03-05T05:31:49.644Z,0.60
2019-03-05T05:34:53.228Z,0.70
2019-03-05T05:37:58.773Z,0.60
2019-03-05T05:41:02.229Z,0.73
2019-03-05T05:44:05.733Z,0.87
2019-03-05T05:47:09.250Z,0.90
2019-03-05T05:50:18.862Z,0.67
2019-03-05T05:53:23.408Z,0.77
2019-03-05T05:56:26.944Z,0.60
2019-03-05T05:59:30.431Z,0.60
2019-03-05T06:02:33.911Z,0.60
2019-03-05T06:05:37.423Z,0.70
2019-03-05T06:08:40.929Z,0.70
2019-03-05T06:11:44.435Z,0.60
2019-03-05T06:14:47.928Z,0.60
2019-03-05T06:17:52.457Z,0.90
2019-03-05T06:20:55.962Z,0.70
2019-03-05T06:24:00.468Z,0.60
2019-03-05T06:27:03.966Z,0.93
2019-03-05T06:30:09.341Z,0.80
2019-03-05T06:33:12.850Z,0.80
2019-03-05T06:36:16.320Z,0.70
2019-03-05T06:39:19.815Z,0.83
2019-03-05T06:42:23.434Z,0.70
2019-03-05T06:45:28.040Z,0.70
2019-03-05T06:48:31.543Z,0.60
2019-03-05T06:51:35.088Z,0.60
2019-03-05T06:54:38.567Z,0.80
2019-03-05T06:57:42.058Z,0.70
2019-03-05T07:00:45.545Z,0.70
2019-03-05T07:03:49.047Z,0.67
2019-03-05T07:06:58.960Z,0.77
2019-03-05T07:10:28.722Z,0.83
2019-03-05T07:13:32.931Z,0.90
2019-03-05T07:17:10.711Z,0.77
2019-03-05T07:20:50.715Z,0.70
2019-03-05T07:24:44.579Z,0.60
2019-03-05T07:27:51.849Z,0.87
2019-03-05T07:30:55.401Z,0.73
2019-03-05T07:33:58.869Z,0.90
2019-03-05T07:37:02.392Z,0.67
2019-03-05T07:40:08.854Z,0.80
2019-03-05T07:43:12.437Z,0.67
2019-03-05T07:46:15.951Z,0.67
2019-03-05T07:49:20.470Z,0.60
2019-03-05T07:52:23.970Z,0.70
2019-03-05T07:55:27.472Z,0.90
2019-03-05T07:58:31.011Z,0.80
2019-03-05T08:01:35.504Z,0.90
2019-03-05T08:04:38.999Z,1.00
2019-03-05T08:07:42.818Z,1.10
2019-03-05T08:10:46.408Z,0.90
2019-03-05T08:14:32.193Z,0.90
2019-03-05T08:17:36.879Z,1.27
2019-03-05T08:20:40.348Z,1.00
2019-03-05T08:23:44.857Z,0.90
2019-03-05T08:26:48.345Z,1.13
2019-03-05T08:29:51.888Z,0.80
2019-03-05T08:32:57.433Z,0.73
2019-03-05T08:36:01.969Z,1.03
2019-03-05T08:39:07.228Z,0.73
2019-03-05T08:42:12.940Z,0.83
2019-03-05T08:45:16.529Z,1.10
2019-03-05T08:48:20.051Z,0.90
2019-03-05T08:51:23.532Z,0.90
2019-03-05T08:54:28.074Z,0.93
2019-03-05T08:57:32.751Z,0.90
2019-03-05T09:00:36.280Z,1.00
2019-03-05T09:03:39.908Z,0.93
2019-03-05T09:06:44.551Z,0.80
2019-03-05T09:09:48.014Z,1.10
2019-03-05T09:12:51.519Z,0.93
2019-03-05T09:15:55.063Z,0.88
2019-03-05T09:18:58.517Z,0.70
2019-03-05T09:22:03.049Z,1.10
2019-03-05T09:25:06.833Z,1.10
2019-03-05T09:28:10.445Z,0.97
2019-03-05T09:31:13.955Z,0.90
2019-03-05T09:34:17.455Z,0.83
2019-03-05T09:37:20.966Z,0.67
2019-03-05T09:40:25.548Z,0.87
2019-03-05T09:43:29.007Z,1.10
2019-03-05T09:46:32.610Z,0.90
2019-03-05T09:49:36.197Z,0.90
2019-03-05T09:52:39.709Z,1.00
2019-03-05T09:55:43.217Z,0.90
2019-03-05T09:58:46.702Z,0.73
2019-03-05T10:01:53.603Z,0.80
2019-03-05T10:04:57.182Z,0.93
2019-03-05T10:08:00.806Z,1.03
2019-03-05T10:11:10.125Z,1.00
2019-03-05T10:14:13.616Z,1.27
2019-03-05T10:17:18.143Z,0.80
2019-03-05T10:20:22.146Z,1.00
2019-03-05T10:23:26.590Z,0.93
2019-03-05T10:26:30.504Z,0.90
2019-03-05T10:29:37.083Z,0.90
2019-03-05T10:32:41.618Z,0.93
2019-03-05T10:35:45.259Z,0.80
2019-03-05T10:38:57.255Z,0.65
2019-03-05T10:41:58.230Z,0.70
2019-03-05T10:45:02.767Z,1.10
2019-03-05T10:48:06.260Z,1.00
2019-03-05T10:51:10.790Z,0.70
2019-03-05T10:54:15.354Z,0.70
2019-03-05T10:57:18.807Z,0.77
2019-03-05T11:00:26.671Z,0.93
2019-03-05T11:03:30.187Z,0.70
2019-03-05T11:06:33.625Z,0.90
2019-03-05T11:09:37.173Z,0.87
2019-03-05T11:12:40.666Z,1.00
2019-03-05T11:15:44.126Z,0.70
2019-03-05T11:18:48.657Z,0.77
2019-03-05T11:21:52.149Z,0.80
2019-03-05T11:24:55.664Z,1.10
2019-03-05T11:27:59.156Z,1.00
2019-03-05T11:31:02.587Z,1.10
2019-03-05T11:34:06.151Z,0.93
2019-03-05T11:37:09.663Z,0.90
2019-03-05T11:40:20.680Z,1.10
2019-03-05T11:43:18.533Z,1.00
2019-03-05T11:46:22.003Z,0.97
2019-03-05T11:49:26.530Z,0.80
2019-03-05T11:52:30.051Z,0.87
2019-03-05T11:55:33.531Z,0.90
2019-03-05T11:58:37.047Z,0.80
2019-03-05T12:01:46.085Z,0.80
2019-03-05T12:04:49.629Z,0.70
2019-03-05T12:07:54.745Z,0.70
2019-03-05T12:10:58.441Z,0.90
2019-03-05T12:14:01.916Z,0.83
2019-03-05T12:17:05.405Z,0.90
2019-03-05T12:20:10.476Z,0.60
2019-03-05T12:23:14.084Z,0.70
2019-03-05T12:26:17.627Z,1.00
2019-03-05T12:29:22.078Z,0.80
2019-03-05T12:32:25.607Z,0.90
2019-03-05T12:35:31.126Z,0.93
2019-03-05T12:38:34.621Z,0.60
2019-03-05T12:41:39.161Z,0.97
2019-03-05T12:44:43.681Z,1.10
2019-03-05T12:47:47.185Z,1.00
2019-03-05T12:50:51.726Z,1.00
2019-03-05T12:53:55.206Z,1.13
2019-03-05T12:56:58.725Z,1.37
2019-03-05T13:00:04.849Z,0.90
2019-03-05T13:03:08.388Z,0.90
2019-03-05T13:06:11.873Z,0.80
2019-03-05T13:09:19.509Z,0.80
2019-03-05T13:12:23.203Z,1.30
2019-03-05T13:15:28.521Z,1.00
2019-03-05T13:18:32.436Z,0.80
2019-03-05T13:21:36.264Z,1.00
2019-03-05T13:24:39.872Z,1.10
2019-03-05T13:27:43.372Z,1.10
2019-03-05T13:30:46.870Z,1.10
2019-03-05T13:33:50.559Z,1.10
2019-03-05T13:36:56.127Z,1.10
2019-03-05T13:40:00.629Z,0.93
2019-03-05T13:43:05.216Z,0.70
2019-03-05T13:46:08.704Z,0.90
2019-03-05T13:49:43.832Z,0.87
2019-03-05T13:53:22.949Z,1.80
2019-03-05T13:57:02.689Z,5.17
2019-03-05T14:00:07.565Z,5.97
2019-03-05T14:03:36.737Z,5.60
2019-03-05T14:07:36.813Z,5.73
2019-03-05T14:10:40.399Z,5.10
2019-03-05T14:13:43.954Z,5.22
2019-03-05T14:16:49.820Z,4.87
2019-03-05T14:19:53.444Z,4.80
2019-03-05T14:22:57.032Z,4.70
2019-03-05T14:26:01.567Z,4.50
2019-03-05T14:29:05.078Z,3.90
2019-03-05T14:32:08.718Z,4.20
2019-03-05T14:35:17.699Z,3.67
2019-03-05T14:38:21.538Z,3.60
2019-03-05T14:41:26.000Z,4.20
2019-03-05T14:44:39.434Z,3.70
2019-03-05T14:47:34.884Z,3.50
2019-03-05T14:50:38.647Z,3.60
2019-03-05T14:53:42.121Z,3.80
2019-03-05T14:56:45.701Z,3.47
2019-03-05T14:59:49.439Z,3.25
2019-03-05T15:02:53.064Z,3.45
2019-03-05T15:05:56.508Z,2.90
2019-03-05T15:09:00.002Z,3.05
2019-03-05T15:12:03.524Z,3.15
2019-03-05T15:15:11.310Z,3.10
2019-03-05T15:18:14.892Z,2.98
2019-03-05T15:21:18.527Z,2.83
2019-03-05T15:24:22.090Z,2.55
2019-03-05T15:27:25.600Z,2.70
2019-03-05T15:30:29.296Z,2.80
2019-03-05T15:33:32.803Z,2.45
2019-03-05T15:36:36.640Z,2.57
2019-03-05T15:39:40.173Z,2.05
2019-03-05T15:42:43.649Z,2.20
2019-03-05T15:45:47.153Z,2.30
2019-03-05T15:48:50.964Z,2.05
2019-03-05T15:51:54.577Z,2.07
2019-03-05T15:54:58.044Z,2.33
2019-03-05T15:58:01.555Z,2.05
2019-03-05T16:01:09.718Z,2.25
2019-03-05T16:04:12.326Z,2.20
2019-03-05T16:07:16.870Z,2.12
2019-03-05T16:10:20.455Z,1.70
2019-03-05T16:13:24.085Z,2.05
2019-03-05T16:16:27.571Z,2.75
2019-03-05T16:19:31.060Z,2.40
2019-03-05T16:22:34.602Z,2.20
2019-03-05T16:25:38.093Z,2.20
2019-03-05T16:28:44.992Z,2.80
2019-03-05T16:31:58.554Z,2.70
2019-03-05T16:35:18.426Z,2.60
2019-03-05T16:38:37.067Z,2.52
2019-03-05T16:41:58.352Z,1.90
2019-03-05T16:45:08.738Z,2.00
2019-03-05T16:48:36.040Z,1.90
2019-03-05T16:51:49.445Z,2.52
2019-03-05T16:55:10.962Z,2.00
2019-03-05T16:58:32.651Z,1.55
2019-03-05T17:01:43.620Z,1.60
2019-03-05T17:05:05.046Z,1.67
2019-03-05T17:08:23.514Z,2.13
2019-03-05T17:11:54.391Z,1.97
2019-03-05T17:14:57.961Z,1.70
2019-03-05T17:18:01.452Z,1.42
2019-03-05T17:21:05.977Z,1.80
2019-03-05T17:24:09.483Z,1.60
2019-03-05T17:27:14.105Z,1.45
2019-03-05T17:30:17.733Z,1.60
2019-03-05T17:33:22.250Z,1.67
2019-03-05T17:36:25.823Z,1.40
2019-03-05T17:39:29.543Z,1.92
2019-03-05T17:42:33.134Z,1.40
2019-03-05T17:45:37.688Z,1.50
2019-03-05T17:48:41.184Z,1.37
2019-03-05T17:51:44.773Z,1.70
2019-03-05T17:54:48.456Z,1.40
2019-03-05T17:57:52.266Z,1.20
2019-03-05T18:00:56.054Z,1.10
2019-03-05T18:04:00.553Z,1.20
2019-03-05T18:07:04.017Z,1.17
2019-03-05T18:10:08.352Z,1.27
2019-03-05T18:13:12.057Z,1.50
2019-03-05T18:16:15.576Z,1.13
2019-03-05T18:19:19.077Z,1.10
2019-03-05T18:22:22.543Z,1.27
2019-03-05T18:25:26.090Z,1.00
2019-03-05T18:28:30.697Z,1.40
2019-03-05T18:31:34.276Z,1.20
2019-03-05T18:34:38.157Z,1.20
2019-03-05T18:37:41.837Z,1.10
2019-03-05T18:40:45.422Z,1.20
2019-03-05T18:43:48.910Z,1.20
2019-03-05T18:46:52.419Z,1.17
2019-03-05T18:49:55.921Z,1.02
2019-03-05T18:52:59.425Z,1.22
2019-03-05T18:56:03.339Z,1.27
2019-03-05T18:59:06.865Z,1.25
2019-03-05T19:02:10.344Z,1.27
2019-03-05T19:05:14.262Z,1.25
2019-03-05T19:08:18.769Z,1.10
2019-03-05T19:11:22.252Z,1.30
2019-03-05T19:14:25.800Z,1.05
2019-03-05T19:17:30.502Z,1.20
2019-03-05T19:20:34.131Z,1.17
2019-03-05T19:23:37.800Z,1.27
2019-03-05T19:26:41.396Z,1.02
2019-03-05T19:29:44.929Z,1.02
2019-03-05T19:32:48.398Z,1.07
2019-03-05T19:35:52.026Z,0.68
2019-03-05T19:38:55.713Z,1.20
2019-03-05T19:41:59.356Z,1.07
2019-03-05T19:45:02.933Z,1.27
2019-03-05T19:48:06.622Z,1.20
2019-03-05T19:51:10.357Z,0.80
2019-03-05T19:54:13.936Z,0.88
2019-03-05T19:57:17.470Z,0.90
2019-03-05T20:00:31.345Z,1.07
2019-03-05T20:03:34.890Z,1.20
2019-03-05T20:06:39.414Z,0.95
2019-03-05T20:09:42.905Z,1.10
2019-03-05T20:12:46.413Z,0.93
2019-03-05T20:15:49.911Z,1.05
2019-03-05T20:18:53.411Z,0.98
2019-03-05T20:21:56.913Z,0.98
2019-03-05T20:25:00.444Z,1.15
2019-03-05T20:28:04.939Z,1.10
2019-03-05T20:31:08.461Z,0.80
2019-03-05T20:34:11.937Z,1.00
2019-03-05T20:37:17.497Z,1.12
2019-03-05T20:40:22.056Z,1.03
2019-03-05T20:43:27.560Z,1.20
2019-03-05T20:46:31.120Z,0.90
2019-03-05T20:49:34.573Z,1.10
2019-03-05T20:52:38.223Z,1.20
2019-03-05T20:55:41.798Z,0.80
2019-03-05T20:58:46.312Z,1.10
2019-03-05T21:01:49.825Z,0.80
2019-03-05T21:04:53.303Z,0.93
2019-03-05T21:07:57.837Z,0.90
2019-03-05T21:11:01.354Z,0.95
2019-03-05T21:14:05.226Z,1.00
2019-03-05T21:17:09.804Z,0.80
2019-03-05T21:20:13.424Z,0.73
2019-03-05T21:23:17.030Z,1.00
2019-03-05T21:26:21.499Z,0.90
2019-03-05T21:29:27.058Z,0.88
2019-03-05T21:32:32.597Z,0.90
2019-03-05T21:35:36.194Z,0.88
2019-03-05T21:38:40.850Z,0.75
2019-03-05T21:41:45.364Z,0.80
2019-03-05T21:44:49.913Z,0.62
2019-03-05T21:47:53.380Z,0.85
2019-03-05T21:50:56.980Z,1.00
2019-03-05T21:54:00.699Z,0.80
2019-03-05T21:57:04.337Z,0.80
2019-03-05T22:00:12.398Z,0.80
2019-03-05T22:03:16.210Z,1.00
2019-03-05T22:06:19.773Z,0.90
2019-03-05T22:09:23.193Z,0.77
2019-03-05T22:12:26.716Z,0.98
2019-03-05T22:15:30.217Z,0.70
2019-03-05T22:18:33.881Z,0.80
2019-03-05T22:21:37.426Z,0.90
2019-03-05T22:24:41.133Z,0.88
2019-03-05T22:27:44.676Z,0.80
2019-03-05T22:30:49.192Z,0.75
2019-03-05T22:33:52.664Z,0.97
2019-03-05T22:36:56.108Z,0.72
2019-03-05T22:39:59.650Z,0.90
2019-03-05T22:43:03.188Z,0.70
2019-03-05T22:46:09.114Z,0.80
2019-03-05T22:49:12.679Z,0.85
2019-03-05T22:52:17.145Z,0.80
2019-03-05T22:55:20.735Z,1.00
2019-03-05T22:58:24.365Z,0.70
2019-03-05T23:01:54.612Z,0.70
2019-03-05T23:04:58.287Z,1.00
2019-03-05T23:08:01.888Z,0.90
2019-03-05T23:11:05.474Z,0.87
2019-03-05T23:14:09.113Z,0.70
2019-03-05T23:17:13.634Z,0.90
2019-03-05T23:20:19.172Z,1.00
2019-03-05T23:23:23.914Z,0.90
2019-03-05T23:26:27.558Z,0.93
2019-03-05T23:29:39.721Z,0.93
2019-03-05T23:32:43.217Z,0.83
2019-03-05T23:35:46.889Z,0.80
2019-03-05T23:38:50.402Z,0.90
2019-03-05T23:41:54.729Z,0.80
2019-03-05T23:44:58.265Z,0.63
2019-03-05T23:48:01.902Z,1.00
2019-03-05T23:51:05.430Z,0.80
2019-03-05T23:54:09.975Z,0.80
2019-03-05T23:57:13.820Z,0.70
